Time;durP1;ratioP1;P1;durP2;ratioP2;P2;SDS_P1;SDS_P2;PMS_P1;PMS_P2;Temp;Humidity;BMP_temperature;BMP_pressure;BME280_temperature;BME280_humidity;BME280_pressure;Samples;Min_cycle;Max_cycle;Signal;HPM_P1;HPM_P2
2022/08/26 00:00:50;;;;;;;;;3.00;3.00;;;;;23.11;100.00;101417.25;5054931;28;45709;-83
2022/08/26 00:03:17;;;;;;;;;3.50;2.00;;;;;23.12;100.00;101416.38;5039005;28;45363;-84
2022/08/26 00:05:44;;;;;;;;;2.50;2.50;;;;;23.12;100.00;101419.03;5038707;28;45523;-83
2022/08/26 00:08:12;;;;;;;;;2.00;2.00;;;;;23.12;100.00;101412.84;5038791;28;45972;-84
2022/08/26 00:10:38;;;;;;;;;3.75;2.50;;;;;23.17;100.00;101414.63;5057424;28;45692;-83
2022/08/26 00:13:05;;;;;;;;;3.75;3.00;;;;;23.18;100.00;101421.66;5059295;28;45301;-83
2022/08/26 00:15:30;;;;;;;;;5.25;4.25;;;;;23.16;100.00;101419.91;5061432;28;45577;-84
2022/08/26 00:17:56;;;;;;;;;4.75;3.00;;;;;23.15;100.00;101429.63;5066384;28;46115;-85
2022/08/26 00:20:27;;;;;;;;;3.00;3.00;;;;;23.12;100.00;101433.97;5060298;28;45403;-84
2022/08/26 00:22:54;;;;;;;;;3.00;3.00;;;;;23.06;100.00;101431.34;5058557;28;45456;-84
2022/08/26 00:25:20;;;;;;;;;4.00;3.00;;;;;23.00;100.00;101438.34;5058957;28;45514;-84
2022/08/26 00:27:46;;;;;;;;;7.50;3.00;;;;;23.01;100.00;101437.47;5057818;28;45349;-83
2022/08/26 00:30:18;;;;;;;;;8.25;4.50;;;;;23.03;100.00;101442.78;5058024;28;45340;-83
2022/08/26 00:32:45;;;;;;;;;5.25;4.25;;;;;22.98;100.00;101434.84;5040664;28;45322;-83
2022/08/26 00:35:12;;;;;;;;;3.25;3.00;;;;;22.98;100.00;101433.94;5059033;28;45562;-84
2022/08/26 00:37:38;;;;;;;;;4.00;4.00;;;;;22.97;100.00;101441.00;5058681;28;45434;-85
2022/08/26 00:40:08;;;;;;;;;3.25;2.25;;;;;22.96;100.00;101441.88;5059275;28;45740;-84
2022/08/26 00:42:33;;;;;;;;;4.75;3.00;;;;;22.93;100.00;101443.63;5061283;28;45767;-84
2022/08/26 00:44:59;;;;;;;;;3.75;3.50;;;;;22.95;100.00;101447.13;5043146;28;45486;-83
2022/08/26 00:47:36;;;;;;;;;5.00;5.00;;;;;22.90;100.00;101444.47;5058598;28;45971;-83
2022/08/26 00:50:06;;;;;;;;;4.25;3.25;;;;;22.88;100.00;101436.56;5058153;28;45418;-84
2022/08/26 00:52:33;;;;;;;;;4.25;4.25;;;;;22.88;100.00;101433.91;5057220;28;45221;-83
2022/08/26 00:55:24;;;;;;;;;5.00;5.00;;;;;22.86;100.00;101438.31;5058561;28;45224;-84
2022/08/26 00:57:50;;;;;;;;;7.25;6.75;;;;;22.84;100.00;101432.13;5057878;28;46214;-84
2022/08/26 01:00:21;;;;;;;;;6.75;5.00;;;;;22.82;100.00;101431.28;5058536;28;45655;-83
2022/08/26 01:02:48;;;;;;;;;4.75;4.75;;;;;22.78;100.00;101434.75;5058386;28;45324;-83
2022/08/26 01:05:15;;;;;;;;;6.00;4.25;;;;;22.74;100.00;101438.25;5059310;28;46313;-82
2022/08/26 01:07:41;;;;;;;;;5.25;5.00;;;;;22.69;100.00;101429.44;5059249;28;45343;-81
2022/08/26 01:10:15;;;;;;;;;4.00;4.00;;;;;22.65;100.00;101439.13;5045727;28;45318;-83
2022/08/26 01:12:51;;;;;;;;;5.00;4.50;;;;;22.63;100.00;101438.22;5044327;28;45542;-83
2022/08/26 01:15:26;;;;;;;;;6.75;5.75;;;;;22.60;100.00;101437.31;5057037;28;45563;-83
2022/08/26 01:17:51;;;;;;;;;5.25;5.25;;;;;22.60;100.00;101434.69;5057874;28;46604;-83
2022/08/26 01:20:23;;;;;;;;;8.00;5.50;;;;;22.60;100.00;101434.69;5057394;28;45208;-83
2022/08/26 01:22:59;;;;;;;;;9.00;5.50;;;;;22.53;100.00;101445.19;5057818;28;45489;-83
2022/08/26 01:25:29;;;;;;;;;11.25;7.00;;;;;22.54;100.00;101438.19;5058438;28;45568;-83
2022/08/26 01:27:57;;;;;;;;;7.25;6.50;;;;;22.52;100.00;101438.16;5057295;28;45439;-83
2022/08/26 01:30:26;;;;;;;;;5.50;5.50;;;;;22.51;100.00;101441.69;5053947;28;45510;-83
2022/08/26 01:32:55;;;;;;;;;9.75;8.00;;;;;22.53;100.00;101436.41;5058174;28;45272;-83
2022/08/26 01:35:21;;;;;;;;;7.25;5.50;;;;;22.53;100.00;101436.41;5062612;28;45550;-82
2022/08/26 01:37:52;;;;;;;;;7.00;6.00;;;;;22.53;100.00;101439.03;5059290;28;45488;-84
2022/08/26 01:40:24;;;;;;;;;11.25;8.00;;;;;22.53;100.00;101437.28;5057449;28;45655;-84
2022/08/26 01:42:50;;;;;;;;;6.75;6.75;;;;;22.51;100.00;101444.34;5057439;28;45456;-81
2022/08/26 01:45:20;;;;;;;;;9.25;8.00;;;;;22.54;100.00;101438.19;5057006;28;45479;-81
2022/08/26 01:47:48;;;;;;;;;10.50;10.50;;;;;22.53;100.00;101437.28;5056807;28;46296;-81
2022/08/26 01:50:20;;;;;;;;;7.25;7.00;;;;;22.53;100.00;101439.91;5057229;28;45763;-81
2022/08/26 01:52:47;;;;;;;;;8.75;8.75;;;;;22.56;100.00;101442.56;5057298;28;45265;-83
2022/08/26 01:55:16;;;;;;;;;9.00;9.00;;;;;22.59;100.00;101440.84;5057806;28;45616;-83
2022/08/26 01:57:47;;;;;;;;;11.00;8.00;;;;;22.62;100.00;101440.84;5057677;28;45404;-83
2022/08/26 02:00:14;;;;;;;;;8.75;8.75;;;;;22.62;100.00;101444.38;5063688;28;45370;-83
2022/08/26 02:03:15;;;;;;;;;7.75;7.75;;;;;22.57;100.00;101439.06;5061132;28;45335;-83
2022/08/26 02:05:37;;;;;;;;;10.75;8.50;;;;;22.51;100.00;101444.34;5058121;28;45281;-83
2022/08/26 02:08:04;;;;;;;;;12.75;9.00;;;;;22.48;100.00;101446.03;5057137;28;46057;-82
2022/08/26 02:10:30;;;;;;;;;9.75;9.00;;;;;22.42;100.00;101439.88;5057107;28;45571;-83
2022/08/26 02:12:55;;;;;;;;;10.25;8.50;;;;;22.45;100.00;101453.97;5046823;28;45421;-83
2022/08/26 02:15:21;;;;;;;;;10.00;9.50;;;;;22.40;100.00;101444.25;5036990;28;45497;-82
2022/08/26 02:17:47;;;;;;;;;10.00;10.00;;;;;22.39;100.00;101454.78;5037535;28;45458;-84
2022/08/26 02:20:16;;;;;;;;;12.75;10.50;;;;;22.36;100.00;101447.69;5036896;28;45484;-83
2022/08/26 02:22:44;;;;;;;;;10.25;9.00;;;;;22.35;100.00;101451.22;5036998;28;45328;-83
2022/08/26 02:25:20;;;;;;;;;11.00;10.25;;;;;22.34;100.00;101445.94;5037613;28;45428;-84
2022/08/26 02:27:46;;;;;;;;;12.50;9.25;;;;;22.31;100.00;101449.44;5044621;28;46923;-83
2022/08/26 02:30:14;;;;;;;;;10.25;9.75;;;;;22.29;100.00;101450.31;5038898;28;45896;-83
2022/08/26 02:32:40;;;;;;;;;14.75;10.75;;;;;22.25;100.00;101449.38;5037758;28;45435;-83
2022/08/26 02:35:07;;;;;;;;;12.25;9.75;;;;;22.24;100.00;101448.53;5041583;28;45482;-83
2022/08/26 02:37:33;;;;;;;;;12.00;11.25;;;;;22.23;100.00;101446.75;5037322;28;47229;-84
2022/08/26 02:39:59;;;;;;;;;13.25;12.25;;;;;22.20;100.00;101454.63;5036695;28;45935;-83
2022/08/26 02:42:25;;;;;;;;;11.50;11.00;;;;;22.16;100.00;101451.97;5036610;28;45263;-83
2022/08/26 02:44:50;;;;;;;;;12.00;12.00;;;;;22.13;100.00;101452.84;5036522;28;45413;-83
2022/08/26 02:47:16;;;;;;;;;13.50;10.75;;;;;22.15;100.00;101452.84;5037633;28;45493;-83
2022/08/26 02:49:43;;;;;;;;;10.75;10.75;;;;;22.16;100.00;101455.50;5036865;28;45473;-83
2022/08/26 02:52:08;;;;;;;;;12.75;11.50;;;;;22.14;100.00;101451.97;5042232;28;45364;-83
2022/08/26 02:54:34;;;;;;;;;15.00;11.00;;;;;22.13;100.00;101447.56;5047956;28;45462;-84
2022/08/26 02:57:00;;;;;;;;;11.25;11.25;;;;;22.16;100.00;101454.59;5045126;28;46399;-83
2022/08/26 02:59:25;;;;;;;;;12.50;11.25;;;;;22.15;100.00;101453.75;5042199;28;45484;-83
2022/08/26 03:01:51;;;;;;;;;13.00;9.75;;;;;22.15;100.00;101450.19;5042964;28;45339;-83
2022/08/26 03:04:17;;;;;;;;;11.75;11.00;;;;;22.16;100.00;101444.97;5040451;28;45412;-83
2022/08/26 03:06:43;;;;;;;;;12.00;11.75;;;;;22.17;100.00;101448.47;5040169;28;45887;-83
2022/08/26 03:09:09;;;;;;;;;16.00;11.25;;;;;22.18;100.00;101450.22;5040307;28;45425;-83
2022/08/26 03:11:36;;;;;;;;;14.25;10.50;;;;;22.19;100.00;101446.72;5040049;28;45356;-83
2022/08/26 03:14:03;;;;;;;;;14.75;13.50;;;;;22.21;100.00;101451.13;5040176;28;45423;-83
2022/08/26 03:16:33;;;;;;;;;13.25;11.25;;;;;22.20;100.00;101446.72;5053670;28;46537;-83
2022/08/26 03:18:59;;;;;;;;;13.00;12.00;;;;;22.21;100.00;101447.63;5063820;28;45233;-84
2022/08/26 03:21:25;;;;;;;;;13.75;11.75;;;;;22.24;100.00;101450.28;5063615;28;45327;-83
2022/08/26 03:23:50;;;;;;;;;15.50;12.00;;;;;22.30;100.00;101454.72;5060569;28;45430;-83
2022/08/26 03:26:16;;;;;;;;;12.00;10.25;;;;;22.31;100.00;101451.19;5059654;28;45822;-83
2022/08/26 03:31:26;;;;;;;;;12.00;10.75;;;;;22.36;100.00;101454.75;5059424;28;45326;-83
2022/08/26 03:33:51;;;;;;;;;15.00;14.00;;;;;22.34;100.00;101453.84;5041853;28;45492;-82
2022/08/26 03:36:17;;;;;;;;;13.75;12.25;;;;;22.29;100.00;101456.47;5059265;28;45410;-82
2022/08/26 03:38:43;;;;;;;;;16.75;15.25;;;;;22.20;100.00;101445.84;5058174;28;45739;-83
2022/08/26 03:41:10;;;;;;;;;12.00;11.00;;;;;22.14;100.00;101449.34;5047794;28;45411;-82
2022/08/26 03:43:36;;;;;;;;;12.00;12.00;;;;;22.06;100.00;101446.63;5041132;28;45450;-83
2022/08/26 03:46:07;;;;;;;;;13.50;13.50;;;;;22.03;100.00;101448.38;5064628;28;46169;-84
2022/08/26 03:48:33;;;;;;;;;13.75;11.75;;;;;21.99;100.00;101443.94;5059502;28;45382;-84
2022/08/26 03:51:00;;;;;;;;;16.25;13.00;;;;;21.94;100.00;101447.44;5023514;28;45455;-84
2022/08/26 03:53:25;;;;;;;;;14.75;14.00;;;;;21.89;100.00;101456.19;5051970;28;45657;-84
2022/08/26 03:55:51;;;;;;;;;17.50;13.50;;;;;21.80;100.00;101436.78;5059172;28;45344;-83
2022/08/26 03:58:17;;;;;;;;;15.00;13.00;;;;;21.80;100.00;101451.69;5059530;28;45283;-84
2022/08/26 04:00:42;;;;;;;;;14.50;13.50;;;;;21.79;100.00;101450.84;5059413;28;45277;-84
2022/08/26 04:03:10;;;;;;;;;16.00;15.50;;;;;21.76;100.00;101453.44;5058298;28;45225;-83
2022/08/26 04:05:36;;;;;;;;;20.00;11.75;;;;;21.75;100.00;101445.53;5043464;28;47235;-85
2022/08/26 04:08:04;;;;;;;;;17.75;13.50;;;;;21.71;100.00;101441.94;5059225;28;46254;-83
2022/08/26 04:10:31;;;;;;;;;13.75;13.75;;;;;21.70;100.00;101445.47;5063203;28;45304;-84
2022/08/26 04:12:59;;;;;;;;;16.50;13.50;;;;;21.63;100.00;101441.00;5043725;28;45630;-83
2022/08/26 04:15:25;;;;;;;;;18.25;15.75;;;;;21.63;100.00;101447.19;5039180;28;46032;-83
2022/08/26 04:17:51;;;;;;;;;17.50;14.00;;;;;21.59;100.00;101445.38;5043184;28;45561;-84
2022/08/26 04:20:17;;;;;;;;;15.75;15.50;;;;;21.56;100.00;101449.69;5040635;28;45217;-83
2022/08/26 04:22:44;;;;;;;;;17.50;15.00;;;;;21.51;100.00;101452.28;5042897;28;45442;-81
2022/08/26 04:25:11;;;;;;;;;17.00;15.00;;;;;21.51;100.00;101449.66;5058286;28;46220;-83
2022/08/26 04:27:36;;;;;;;;;19.00;14.25;;;;;21.45;100.00;101444.31;5058428;28;45388;-84
2022/08/26 04:30:04;;;;;;;;;18.50;16.00;;;;;21.45;100.00;101458.38;5040427;28;45347;-84
2022/08/26 04:32:29;;;;;;;;;18.50;17.25;;;;;21.45;100.00;101446.94;5039817;28;45568;-82
2022/08/26 04:34:55;;;;;;;;;19.75;18.00;;;;;21.44;100.00;101450.44;5058478;28;45208;-82
2022/08/26 04:37:21;;;;;;;;;18.50;16.00;;;;;21.41;100.00;101447.81;5065624;28;45209;-82
2022/08/26 04:39:52;;;;;;;;;19.50;13.25;;;;;21.41;100.00;101451.31;5063046;28;45447;-82
2022/08/26 04:42:18;;;;;;;;;15.75;14.50;;;;;21.38;100.00;101458.31;5058985;28;45217;-83
2022/08/26 04:44:45;;;;;;;;;17.75;16.00;;;;;21.39;100.00;101462.69;5057456;28;46608;-82
2022/08/26 04:47:10;;;;;;;;;22.75;18.50;;;;;21.37;100.00;101467.97;5056523;28;45267;-82
2022/08/26 04:49:37;;;;;;;;;17.75;13.25;;;;;21.34;100.00;101455.63;5057216;28;45283;-82
2022/08/26 04:52:04;;;;;;;;;18.00;16.25;;;;;21.35;100.00;101456.53;5046799;28;45403;-82
2022/08/26 04:54:29;;;;;;;;;18.75;17.00;;;;;21.37;100.00;101464.44;5037863;28;46361;-82
2022/08/26 04:56:55;;;;;;;;;18.25;15.00;;;;;21.38;100.00;101466.19;5038033;28;45862;-82
2022/08/26 04:59:20;;;;;;;;;18.00;17.25;;;;;21.43;100.00;101465.38;5037238;28;45351;-82
2022/08/26 05:01:51;;;;;;;;;20.50;17.25;;;;;21.45;100.00;101461.03;5040540;28;45403;-82
2022/08/26 05:04:19;;;;;;;;;21.75;18.50;;;;;21.49;100.00;101461.94;5051092;28;47203;-81
2022/08/26 05:06:48;;;;;;;;;18.00;16.25;;;;;21.50;100.00;101464.56;5060546;28;45422;-82
2022/08/26 05:09:14;;;;;;;;;18.75;16.25;;;;;21.58;100.00;101477.81;5057944;28;45311;-82
2022/08/26 05:11:40;;;;;;;;;15.00;15.00;;;;;21.60;100.00;101480.50;5058475;28;45503;-82
2022/08/26 05:14:06;;;;;;;;;19.75;15.75;;;;;21.61;100.00;101480.53;5057296;28;45926;-83
2022/08/26 05:16:32;;;;;;;;;20.00;17.75;;;;;21.62;100.00;101487.56;5058266;28;45826;-82
2022/08/26 05:18:58;;;;;;;;;17.75;15.50;;;;;21.62;100.00;101481.41;5058263;28;45430;-83
2022/08/26 05:21:27;;;;;;;;;19.50;15.00;;;;;21.65;100.00;101500.75;5058241;28;45617;-83
2022/08/26 05:23:54;;;;;;;;;18.50;16.25;;;;;21.63;100.00;101491.97;5057566;28;46700;-82
2022/08/26 05:26:22;;;;;;;;;17.75;17.50;;;;;21.67;100.00;101498.16;5057582;28;45230;-83
2022/08/26 05:28:48;;;;;;;;;24.50;17.75;;;;;21.67;100.00;101495.53;5061776;28;45414;-83
2022/08/26 05:31:16;;;;;;;;;15.75;14.25;;;;;21.73;100.00;101497.34;5066055;28;45250;-83
2022/08/26 05:33:42;;;;;;;;;21.75;18.25;;;;;21.75;100.00;101501.75;5060085;28;45380;-82
2022/08/26 05:36:11;;;;;;;;;20.50;18.75;;;;;21.74;100.00;101501.75;5057501;28;45279;-82
2022/08/26 05:38:37;;;;;;;;;20.50;16.00;;;;;21.75;100.00;101507.00;5056269;28;45258;-82
2022/08/26 05:41:02;;;;;;;;;19.00;15.75;;;;;21.76;100.00;101513.16;5057555;28;45406;-82
2022/08/26 05:43:28;;;;;;;;;22.50;17.75;;;;;21.77;100.00;101523.72;5056838;28;45982;-81
2022/08/26 05:45:56;;;;;;;;;21.75;18.50;;;;;21.76;100.00;101514.06;5056869;28;45403;-82
2022/08/26 05:48:21;;;;;;;;;19.00;17.00;;;;;21.73;100.00;101505.25;5035620;28;45367;-81
2022/08/26 05:50:50;;;;;;;;;22.50;17.25;;;;;21.75;100.00;101519.31;5064326;28;45363;-82
2022/08/26 05:53:19;;;;;;;;;19.25;18.00;;;;;21.74;100.00;101514.91;5053104;28;45396;-82
2022/08/26 05:55:48;;;;;;;;;21.50;17.50;;;;;21.75;100.00;101520.19;5059453;28;45508;-82
2022/08/26 05:58:14;;;;;;;;;17.75;16.75;;;;;21.74;100.00;101517.56;5060067;28;46010;-81
2022/08/26 06:00:40;;;;;;;;;17.00;16.25;;;;;21.77;100.00;101517.56;5057490;28;45408;-82
2022/08/26 06:03:07;;;;;;;;;17.75;16.25;;;;;21.84;100.00;101523.78;5056428;28;46390;-82
2022/08/26 06:05:40;;;;;;;;;22.00;20.50;;;;;21.88;100.00;101522.94;5056292;28;45498;-83
2022/08/26 06:08:17;;;;;;;;;18.50;15.75;;;;;21.93;100.00;101527.41;5044802;28;45388;-84
2022/08/26 06:10:49;;;;;;;;;17.50;14.75;;;;;21.98;100.00;101532.72;5040414;28;45384;-89
2022/08/26 06:13:17;;;;;;;;;17.25;15.25;;;;;22.01;100.00;101527.47;5039768;28;46263;-83
2022/08/26 06:15:47;;;;;;;;;18.25;15.00;;;;;22.06;100.00;101523.09;5044922;28;46047;-81
2022/08/26 06:18:18;;;;;;;;;18.00;17.75;;;;;22.09;100.00;101528.41;5054236;28;45252;-81
2022/08/26 06:20:45;;;;;;;;;19.50;17.75;;;;;22.13;100.00;101525.81;5059407;28;45391;-80
2022/08/26 06:25:57;;;;;;;;;18.50;16.50;;;;;22.07;100.00;101521.38;5059387;28;45211;-80
2022/08/26 06:28:24;;;;;;;;;20.50;18.25;;;;;22.09;100.00;101523.13;5054388;28;45522;-76
2022/08/26 06:30:51;;;;;;;;;19.25;17.50;;;;;22.13;100.00;101518.78;5056209;28;45517;-76
2022/08/26 06:33:17;;;;;;;;;20.00;16.50;;;;;22.15;100.00;101516.13;5055524;28;46254;-76
2022/08/26 06:35:44;;;;;;;;;16.00;12.75;;;;;22.14;100.00;101520.53;5054863;28;46125;-74
2022/08/26 06:38:10;;;;;;;;;19.50;15.00;;;;;22.17;100.00;101515.28;5054168;28;45297;-76
2022/08/26 06:40:49;;;;;;;;;19.25;16.50;;;;;22.19;100.00;101516.16;5037346;28;45664;-74
2022/08/26 06:43:17;;;;;;;;;13.50;13.50;;;;;22.21;100.00;101517.06;5045751;28;45778;-74
2022/08/26 06:45:46;;;;;;;;;12.75;11.00;;;;;22.26;100.00;101518.00;5061033;27;45688;-74
2022/08/26 06:48:18;;;;;;;;;12.75;11.50;;;;;22.31;100.00;101517.13;5078696;27;45484;-75
2022/08/26 06:50:45;;;;;;;;;17.25;14.25;;;;;22.34;100.00;101519.81;5066414;28;45589;-75
2022/08/26 06:53:12;;;;;;;;;20.50;14.25;;;;;22.37;100.00;101527.75;5055936;28;45485;-75
2022/08/26 06:55:43;;;;;;;;;16.25;12.25;;;;;22.41;100.00;101534.81;5055315;28;45642;-75
2022/08/26 06:58:09;;;;;;;;;20.50;14.25;;;;;22.38;100.00;101526.88;5054029;28;45529;-75
2022/08/26 07:00:37;;;;;;;;;17.75;14.50;;;;;22.35;100.00;101530.34;5054948;28;45452;-74
2022/08/26 07:03:04;;;;;;;;;15.25;14.50;;;;;22.35;100.00;101534.75;5036334;28;47836;-75
2022/08/26 07:05:30;;;;;;;;;15.25;14.50;;;;;22.37;100.00;101535.66;5055102;28;45665;-75
2022/08/26 07:07:56;;;;;;;;;16.50;13.00;;;;;22.39;100.00;101531.28;5036768;28;45282;-76
2022/08/26 07:10:23;;;;;;;;;16.00;13.50;;;;;22.35;100.00;101529.50;5037648;28;47538;-77
2022/08/26 07:12:49;;;;;;;;;19.00;15.00;;;;;22.39;100.00;101526.00;5058321;28;46315;-76
2022/08/26 07:15:15;;;;;;;;;14.00;13.00;;;;;22.39;100.00;101524.25;5060674;28;45414;-78
2022/08/26 07:17:43;;;;;;;;;14.75;14.00;;;;;22.50;100.00;101523.47;5057316;28;45273;-77
2022/08/26 07:20:10;;;;;;;;;15.50;13.25;;;;;22.60;100.00;101519.16;5056152;28;45201;-77
2022/08/26 07:22:37;;;;;;;;;14.50;12.75;;;;;22.69;100.00;101522.69;5055854;28;46181;-77
2022/08/26 07:25:07;;;;;;;;;18.25;14.50;;;;;22.78;100.00;101523.66;5054951;28;45265;-78
2022/08/26 07:27:35;;;;;;;;;18.50;14.00;;;;;22.82;100.00;101523.69;5055759;28;45297;-78
2022/08/26 07:30:01;;;;;;;;;16.00;13.75;;;;;22.87;100.00;101524.56;5056064;28;45418;-82
2022/08/26 07:32:26;;;;;;;;;14.50;14.50;;;;;22.92;100.00;101526.34;5054159;28;45538;-78
2022/08/26 07:34:52;;;;;;;;;16.75;13.75;;;;;22.94;100.00;101528.13;5037769;28;45349;-78
2022/08/26 07:37:18;;;;;;;;;15.25;15.00;;;;;22.94;100.00;101521.97;5056112;28;45374;-79
2022/08/26 07:39:45;;;;;;;;;17.75;16.50;;;;;22.92;100.00;101526.34;5044051;28;45580;-78
2022/08/26 07:42:13;;;;;;;;;16.75;14.00;;;;;22.90;100.00;101531.59;5028845;28;45392;-77
2022/08/26 07:44:40;;;;;;;;;15.50;13.50;;;;;22.81;100.00;101528.94;5059396;28;45742;-77
2022/08/26 07:47:07;;;;;;;;;17.75;15.50;;;;;22.79;100.00;101528.03;5058939;28;45412;-78
2022/08/26 07:49:33;;;;;;;;;16.25;14.50;;;;;22.79;100.00;101533.31;5060812;28;45271;-79
2022/08/26 07:52:00;;;;;;;;;14.25;13.25;;;;;22.81;100.00;101531.56;5058614;28;46290;-78
2022/08/26 07:54:26;;;;;;;;;13.50;11.25;;;;;22.84;100.00;101527.19;5058626;28;45870;-77
2022/08/26 07:56:52;;;;;;;;;15.25;13.00;;;;;22.90;100.00;101538.66;5058789;28;45377;-78
2022/08/26 07:59:18;;;;;;;;;14.00;13.50;;;;;22.81;100.00;101529.81;5059102;28;45272;-79
2022/08/26 08:01:45;;;;;;;;;11.25;11.25;;;;;22.76;100.00;101525.41;5058575;28;45437;-78
2022/08/26 08:04:16;;;;;;;;;18.50;13.25;;;;;22.70;100.00;101523.59;5059068;28;45273;-78
2022/08/26 08:06:42;;;;;;;;;16.00;13.00;;;;;22.65;100.00;101522.69;5064368;28;45395;-79
2022/08/26 08:09:09;;;;;;;;;17.00;13.75;;;;;22.63;100.00;101521.78;5059189;28;45595;-78
2022/08/26 08:11:35;;;;;;;;;14.00;11.25;;;;;22.69;100.00;101527.13;5059015;28;45912;-78
2022/08/26 08:14:01;;;;;;;;;15.50;10.25;;;;;22.72;100.00;101524.50;5058860;28;45823;-78
2022/08/26 08:16:28;;;;;;;;;11.75;10.75;;;;;22.75;100.00;101528.91;5058796;28;45327;-78
2022/08/26 08:18:56;;;;;;;;;9.50;8.00;;;;;22.87;100.00;101527.22;5058590;28;45540;-77
2022/08/26 08:21:23;;;;;;;;;13.25;11.00;;;;;23.04;100.00;101516.72;5040385;28;45548;-78
2022/08/26 08:23:53;;;;;;;;;11.50;10.75;;;;;23.23;100.00;101529.16;5056801;28;45864;-78
2022/08/26 08:26:19;;;;;;;;;10.00;10.00;;;;;23.34;100.00;101525.66;5058509;28;45446;-77
2022/08/26 08:28:45;;;;;;;;;14.25;10.00;;;;;23.52;100.00;101525.72;5058639;28;45292;-78
2022/08/26 08:31:19;;;;;;;;;9.25;8.25;;;;;23.60;100.00;101523.97;5060464;28;45315;-78
2022/08/26 08:33:45;;;;;;;;;11.00;10.00;;;;;23.61;100.00;101528.38;5062688;28;45273;-78
2022/08/26 08:36:13;;;;;;;;;9.00;9.00;;;;;23.71;100.00;101527.50;5058806;28;45437;-78
2022/08/26 08:38:43;;;;;;;;;10.00;10.00;;;;;23.76;100.00;101525.78;5058739;28;45524;-78
2022/08/26 08:41:43;;;;;;;;;10.75;10.50;;;;;23.73;100.00;101528.41;5058491;28;45410;-78
2022/08/26 08:44:18;;;;;;;;;13.00;12.25;;;;;23.77;100.00;101519.59;5039813;28;45402;-78
2022/08/26 08:46:50;;;;;;;;;9.50;9.50;;;;;23.80;99.01;101529.28;5058124;28;45383;-78
2022/08/26 08:49:17;;;;;;;;;9.50;8.00;;;;;23.90;98.30;101527.56;5039260;28;45550;-78
2022/08/26 08:51:48;;;;;;;;;12.50;10.50;;;;;24.01;96.84;101520.53;5057909;28;45429;-78
2022/08/26 08:54:14;;;;;;;;;6.75;6.75;;;;;24.09;95.64;101521.41;5058153;28;45786;-78
2022/08/26 08:57:00;;;;;;;;;9.50;7.75;;;;;24.16;95.25;101521.41;5059572;28;45338;-78
2022/08/26 08:59:31;;;;;;;;;10.50;8.75;;;;;24.29;95.12;101522.31;5059137;28;45245;-77
2022/08/26 09:02:13;;;;;;;;;9.50;8.25;;;;;24.40;93.18;101517.88;5060384;28;46287;-76
2022/08/26 09:05:10;;;;;;;;;12.00;10.00;;;;;24.46;91.81;101517.84;5059285;28;45385;-76
2022/08/26 09:07:47;;;;;;;;;6.50;6.25;;;;;24.46;90.59;101512.56;5042297;28;45326;-77
2022/08/26 09:10:29;;;;;;;;;9.75;7.00;;;;;24.43;90.76;101517.84;5057007;28;45377;-78
2022/08/26 09:12:55;;;;;;;;;8.00;8.00;;;;;24.38;91.23;101523.16;5039684;28;47566;-77
2022/08/26 09:15:39;;;;;;;;;6.25;5.25;;;;;24.36;90.31;101514.31;5057718;28;45354;-77
2022/08/26 09:18:29;;;;;;;;;7.50;7.50;;;;;24.32;89.73;101517.88;5058234;28;45327;-77
2022/08/26 09:20:57;;;;;;;;;8.75;7.50;;;;;24.38;90.99;101522.28;5040947;28;45653;-77
2022/08/26 09:23:23;;;;;;;;;12.00;10.00;;;;;24.42;91.97;101521.38;5060600;28;45295;-78
2022/08/26 09:25:53;;;;;;;;;11.25;8.25;;;;;24.40;92.70;101521.38;5059614;28;45619;-78
2022/08/26 09:28:22;;;;;;;;;11.50;8.00;;;;;24.40;92.43;101523.16;5058349;28;45479;-78
2022/08/26 09:31:01;;;;;;;;;12.00;9.00;;;;;24.29;92.86;101515.22;5057727;28;45484;-78
2022/08/26 09:33:29;;;;;;;;;11.25;10.75;;;;;24.28;93.24;101516.09;5039232;28;47096;-78
2022/08/26 09:36:15;;;;;;;;;8.00;8.00;;;;;24.34;91.35;101504.63;5057199;28;45475;-78
2022/08/26 09:38:42;;;;;;;;;8.00;8.00;;;;;24.36;90.57;101505.53;5057709;28;45430;-78
2022/08/26 09:41:21;;;;;;;;;9.75;7.25;;;;;24.45;90.02;101509.94;5057970;28;45383;-77
2022/08/26 09:44:17;;;;;;;;;9.75;9.75;;;;;24.57;88.70;101504.56;5057095;28;45647;-77
2022/08/26 09:46:54;;;;;;;;;12.50;9.25;;;;;24.67;87.47;101516.03;5055875;28;45891;-77
2022/08/26 09:49:32;;;;;;;;;9.00;8.00;;;;;24.66;86.84;101508.97;5040862;28;45323;-77
2022/08/26 09:52:23;;;;;;;;;7.75;6.75;;;;;24.72;85.47;101504.59;5063494;28;45372;-80
2022/08/26 09:55:06;;;;;;;;;9.00;6.75;;;;;24.75;84.68;101508.13;5060815;28;46053;-78
2022/08/26 09:57:34;;;;;;;;;10.50;6.75;;;;;24.83;83.83;101509.88;5057136;28;45887;-77
2022/08/26 10:00:01;;;;;;;;;11.00;8.00;;;;;24.87;85.08;101508.94;5057733;28;45442;-77
2022/08/26 10:02:32;;;;;;;;;10.00;9.50;;;;;24.87;83.83;101505.44;5058722;28;45400;-77
2022/08/26 10:05:01;;;;;;;;;11.25;10.00;;;;;24.87;82.76;101500.13;5056973;28;46051;-77
2022/08/26 10:07:46;;;;;;;;;9.00;9.00;;;;;24.91;83.42;101501.00;5056876;28;46001;-77
2022/08/26 10:10:37;;;;;;;;;8.50;8.50;;;;;24.98;82.79;101508.91;5060239;28;45442;-80
2022/08/26 10:13:11;;;;;;;;;10.25;8.50;;;;;25.05;82.99;101504.47;5067111;28;45384;-77
2022/08/26 10:15:58;;;;;;;;;8.75;8.00;;;;;25.11;82.47;101507.09;5060130;28;46036;-78
2022/08/26 10:18:30;;;;;;;;;7.25;7.25;;;;;25.12;82.08;101505.31;5063510;28;45401;-77
2022/08/26 10:21:33;;;;;;;;;10.75;10.00;;;;;25.08;82.49;101501.78;5058653;28;45451;-76
2022/08/26 10:24:02;;;;;;;;;12.00;9.25;;;;;25.02;82.99;101507.13;5054263;28;45489;-79
2022/08/26 10:27:06;;;;;;;;;9.50;8.00;;;;;24.95;83.02;101500.06;5057254;28;46007;-79
2022/08/26 10:29:44;;;;;;;;;11.75;10.75;;;;;24.92;83.46;101490.38;5054371;28;45608;-79
2022/08/26 10:32:37;;;;;;;;;10.25;8.25;;;;;25.01;82.57;101487.69;5039172;28;45532;-79
2022/08/26 10:35:05;;;;;;;;;7.75;7.75;;;;;25.10;81.52;101489.41;5047701;28;45259;-79
2022/08/26 10:37:48;;;;;;;;;8.25;7.00;;;;;25.20;80.85;101487.63;5056980;28;45549;-78
2022/08/26 10:40:21;;;;;;;;;8.00;6.00;;;;;25.22;80.92;101488.47;5057767;28;45497;-79
2022/08/26 10:43:06;;;;;;;;;8.00;7.00;;;;;25.17;79.26;101483.19;5062716;28;45350;-79
2022/08/26 10:45:37;;;;;;;;;7.00;6.50;;;;;24.97;76.00;101480.66;5060308;28;45323;-76
2022/08/26 10:48:25;;;;;;;;;6.50;6.50;;;;;24.81;75.65;101495.75;5040332;28;46347;-77
2022/08/26 10:50:54;;;;;;;;;6.75;5.50;;;;;24.68;74.97;101494.88;5057711;28;45338;-77
2022/08/26 10:53:23;;;;;;;;;6.00;5.50;;;;;24.60;76.29;101487.81;5039411;28;45331;-78
2022/08/26 10:56:27;;;;;;;;;5.25;5.25;;;;;24.54;77.23;101489.59;5057192;28;45489;-78
2022/08/26 10:59:17;;;;;;;;;7.00;6.25;;;;;24.56;77.81;101492.25;5056161;28;45330;-79
2022/08/26 11:01:56;;;;;;;;;9.00;5.50;;;;;24.61;77.75;101482.53;5057037;28;45789;-77
2022/08/26 11:04:40;;;;;;;;;7.00;7.00;;;;;24.62;77.72;101481.63;5056168;28;45337;-77
2022/08/26 11:07:35;;;;;;;;;8.00;7.00;;;;;24.71;78.41;101471.03;5057001;28;45403;-77
2022/08/26 11:10:20;;;;;;;;;5.25;5.25;;;;;24.90;77.95;101480.69;5045755;28;45414;-79
2022/08/26 11:12:59;;;;;;;;;9.00;9.00;;;;;25.09;78.02;101476.19;5056981;28;45282;-79
2022/08/26 11:15:26;;;;;;;;;8.00;7.00;;;;;25.26;76.47;101470.81;5060210;28;45348;-78
2022/08/26 11:17:54;;;;;;;;;8.25;7.00;;;;;25.42;75.46;101463.66;5042025;28;45373;-78
2022/08/26 11:20:22;;;;;;;;;7.75;6.75;;;;;25.53;72.25;101468.88;5060848;28;45430;-78
2022/08/26 11:22:50;;;;;;;;;6.00;5.25;;;;;25.52;72.24;101459.16;5060297;28;45453;-79
2022/08/26 11:25:23;;;;;;;;;7.00;7.00;;;;;25.55;71.91;101465.31;5059945;28;45209;-78
2022/08/26 11:27:54;;;;;;;;;6.25;6.25;;;;;25.59;70.40;101464.41;5060099;28;45289;-77